createdAt,value
2023-04-11T00:00:55.901Z,281.00
2023-04-11T00:01:55.988Z,280.00
2023-04-11T00:02:56.088Z,281.00
2023-04-11T00:03:57.034Z,281.00
2023-04-11T00:04:55.939Z,283.00
2023-04-11T00:05:55.869Z,285.00
2023-04-11T00:06:55.867Z,283.00
2023-04-11T00:07:55.860Z,282.00
2023-04-11T00:08:55.991Z,282.00
2023-04-11T00:09:55.848Z,283.00
2023-04-11T00:10:55.841Z,281.00
2023-04-11T00:11:55.834Z,281.00
2023-04-11T00:12:55.828Z,282.00
2023-04-11T00:13:55.824Z,281.00
2023-04-11T00:14:55.837Z,281.00
2023-04-11T00:15:56.004Z,278.00
2023-04-11T00:16:55.858Z,279.00
2023-04-11T00:17:55.858Z,278.00
2023-04-11T00:18:55.973Z,274.00
2023-04-11T00:19:55.836Z,275.00
2023-04-11T00:20:55.890Z,274.00
2023-04-11T00:21:55.861Z,274.00
2023-04-11T00:22:55.856Z,276.00
2023-04-11T00:23:55.836Z,277.00
2023-04-11T00:24:55.841Z,276.00
2023-04-11T00:25:55.828Z,273.00
2023-04-11T00:26:55.829Z,273.00
2023-04-11T00:27:55.800Z,276.00
2023-04-11T00:28:56.225Z,279.00
2023-04-11T00:29:55.792Z,279.00
2023-04-11T00:30:55.807Z,281.00
2023-04-11T00:31:55.819Z,280.00
2023-04-11T00:32:55.817Z,279.00
2023-04-11T00:33:55.775Z,278.00
2023-04-11T00:34:55.758Z,278.00
2023-04-11T00:35:55.799Z,277.00
2023-04-11T00:36:55.774Z,276.00
2023-04-11T00:37:55.744Z,277.00
2023-04-11T00:38:56.006Z,276.00
2023-04-11T00:39:55.746Z,274.00
2023-04-11T00:40:55.751Z,273.00
2023-04-11T00:41:55.749Z,274.00
2023-04-11T00:42:55.756Z,274.00
2023-04-11T00:43:55.754Z,273.00
2023-04-11T00:44:55.763Z,273.00
2023-04-11T00:45:55.823Z,274.00
2023-04-11T00:46:55.821Z,275.00
2023-04-11T00:47:55.919Z,274.00
2023-04-11T00:48:56.147Z,272.00
2023-04-11T00:49:55.957Z,274.00
2023-04-11T00:50:55.935Z,274.00
2023-04-11T00:51:55.939Z,272.00
2023-04-11T00:52:55.911Z,272.00
2023-04-11T00:53:55.932Z,272.00
2023-04-11T00:54:55.907Z,273.00
2023-04-11T00:55:55.911Z,275.00
2023-04-11T00:56:55.904Z,275.00
2023-04-11T00:57:55.898Z,275.00
2023-04-11T00:58:56.115Z,276.00
2023-04-11T00:59:55.903Z,276.00
2023-04-11T01:00:55.956Z,275.00
2023-04-11T01:01:55.983Z,275.00
2023-04-11T01:02:55.943Z,277.00
2023-04-11T01:03:56.061Z,279.00
2023-04-11T01:04:55.857Z,279.00
2023-04-11T01:05:55.826Z,278.00
2023-04-11T01:06:55.825Z,278.00
2023-04-11T01:07:55.802Z,277.00
2023-04-11T01:08:55.908Z,277.00
2023-04-11T01:09:55.770Z,277.00
2023-04-11T01:10:55.752Z,276.00
2023-04-11T01:11:55.750Z,272.00
2023-04-11T01:12:55.785Z,275.00
2023-04-11T01:13:55.740Z,276.00
2023-04-11T01:14:55.701Z,275.00
2023-04-11T01:15:55.698Z,276.00
2023-04-11T01:16:55.747Z,277.00
2023-04-11T01:17:55.805Z,278.00
2023-04-11T01:18:55.851Z,278.00
2023-04-11T01:19:55.657Z,276.00
2023-04-11T01:20:55.631Z,277.00
2023-04-11T01:21:55.646Z,278.00
2023-04-11T01:22:55.620Z,276.00
2023-04-11T01:23:55.608Z,278.00
2023-04-11T01:24:55.586Z,279.00
2023-04-11T01:25:55.607Z,280.00
2023-04-11T01:26:55.565Z,276.00
2023-04-11T01:27:55.553Z,277.00
2023-04-11T01:28:55.701Z,280.00
2023-04-11T01:29:55.511Z,282.00
2023-04-11T01:30:55.556Z,281.00
2023-04-11T01:31:55.484Z,280.00
2023-04-11T01:32:55.493Z,280.00
2023-04-11T01:33:55.450Z,279.00
2023-04-11T01:34:55.438Z,279.00
2023-04-11T01:35:55.471Z,280.00
2023-04-11T01:36:55.412Z,279.00
2023-04-11T01:37:55.412Z,280.00
2023-04-11T01:38:55.771Z,282.00
2023-04-11T01:39:55.373Z,283.00
2023-04-11T01:40:55.344Z,283.00
2023-04-11T01:41:55.346Z,284.00
2023-04-11T01:42:55.326Z,283.00
2023-04-11T01:43:55.320Z,280.00
2023-04-11T01:44:55.292Z,278.00
2023-04-11T01:45:55.279Z,279.00
2023-04-11T01:46:55.264Z,278.00
2023-04-11T01:47:55.310Z,278.00
2023-04-11T01:48:55.598Z,277.00
2023-04-11T01:49:55.219Z,277.00
2023-04-11T01:50:55.197Z,278.00
2023-04-11T01:51:55.189Z,277.00
2023-04-11T01:52:55.189Z,278.00
2023-04-11T01:53:55.157Z,277.00
2023-04-11T01:54:55.161Z,279.00
2023-04-11T01:55:55.124Z,279.00
2023-04-11T01:56:55.130Z,278.00
2023-04-11T01:57:55.097Z,279.00
2023-04-11T01:58:55.269Z,280.00
2023-04-11T01:59:55.076Z,280.00
2023-04-11T02:00:55.063Z,283.00
2023-04-11T02:01:55.112Z,284.00
2023-04-11T02:02:55.124Z,286.00
2023-04-11T02:03:55.153Z,279.00
2023-04-11T02:04:55.002Z,281.00
2023-04-11T02:05:54.981Z,284.00
2023-04-11T02:06:55.000Z,286.00
2023-04-11T02:07:54.989Z,286.00
2023-04-11T02:08:55.250Z,283.00
2023-04-11T02:09:54.913Z,283.00
2023-04-11T02:10:54.910Z,283.00
2023-04-11T02:11:54.887Z,279.00
2023-04-11T02:12:54.874Z,278.00
2023-04-11T02:13:54.863Z,278.00
2023-04-11T02:14:54.825Z,276.00
2023-04-11T02:15:54.842Z,277.00
2023-04-11T02:16:54.807Z,276.00
2023-04-11T02:17:54.892Z,277.00
2023-04-11T02:18:55.031Z,280.00
2023-04-11T02:19:54.754Z,282.00
2023-04-11T02:20:54.727Z,281.00
2023-04-11T02:21:54.721Z,281.00
2023-04-11T02:22:54.690Z,283.00
2023-04-11T02:23:54.673Z,282.00
2023-04-11T02:24:54.660Z,281.00
2023-04-11T02:25:54.640Z,281.00
2023-04-11T02:26:54.612Z,282.00
2023-04-11T02:27:54.613Z,279.00
2023-04-11T02:28:54.721Z,279.00
2023-04-11T02:29:54.568Z,281.00
2023-04-11T02:30:54.610Z,279.00
2023-04-11T02:31:54.595Z,279.00
2023-04-11T02:32:54.579Z,278.00
2023-04-11T02:33:54.519Z,277.00
2023-04-11T02:34:54.503Z,279.00
2023-04-11T02:35:54.527Z,279.00
2023-04-11T02:36:54.472Z,275.00
2023-04-11T02:37:54.466Z,276.00
2023-04-11T02:38:54.713Z,279.00
2023-04-11T02:39:54.423Z,277.00
2023-04-11T02:40:54.410Z,280.00
2023-04-11T02:41:54.400Z,277.00
2023-04-11T02:42:54.392Z,276.00
2023-04-11T02:43:54.408Z,275.00
2023-04-11T02:44:54.356Z,274.00
2023-04-11T02:46:02.070Z,275.00
2023-04-11T02:46:55.384Z,275.00
2023-04-11T02:47:54.381Z,276.00
2023-04-11T02:48:54.535Z,278.00
2023-04-11T02:49:54.331Z,278.00
2023-04-11T02:50:54.336Z,277.00
2023-04-11T02:51:54.297Z,277.00
2023-04-11T02:52:54.284Z,275.00
2023-04-11T02:53:54.268Z,274.00
2023-04-11T02:54:54.236Z,275.00
2023-04-11T02:55:54.226Z,277.00
2023-04-11T02:56:54.203Z,278.00
2023-04-11T02:57:54.202Z,277.00
2023-04-11T02:58:54.413Z,278.00
2023-04-11T02:59:54.152Z,279.00
2023-04-11T03:00:54.145Z,281.00
2023-04-11T03:01:54.185Z,278.00
2023-04-11T03:02:54.219Z,277.00
2023-04-11T03:03:54.143Z,276.00
2023-04-11T03:04:54.051Z,275.00
2023-04-11T03:05:54.071Z,273.00
2023-04-11T03:06:54.050Z,274.00
2023-04-11T03:07:54.003Z,274.00
2023-04-11T03:08:54.294Z,274.00
2023-04-11T03:09:53.978Z,274.00
2023-04-11T03:10:53.952Z,277.00
2023-04-11T03:11:53.943Z,280.00
2023-04-11T03:12:53.929Z,279.00
2023-04-11T03:13:54.005Z,280.00
2023-04-11T03:14:53.896Z,281.00
2023-04-11T03:15:53.912Z,278.00
2023-04-11T03:16:53.864Z,276.00
2023-04-11T03:17:53.882Z,277.00
2023-04-11T03:18:54.119Z,277.00
2023-04-11T03:19:53.852Z,275.00
2023-04-11T03:20:53.802Z,277.00
2023-04-11T03:21:53.797Z,279.00
2023-04-11T03:22:53.795Z,278.00
2023-04-11T03:23:53.773Z,279.00
2023-04-11T03:24:53.757Z,280.00
2023-04-11T03:25:53.742Z,280.00
2023-04-11T03:26:53.736Z,279.00
2023-04-11T03:27:53.718Z,278.00
2023-04-11T03:28:54.034Z,275.00
2023-04-11T03:29:53.718Z,276.00
2023-04-11T03:30:53.740Z,278.00
2023-04-11T03:31:53.694Z,280.00
2023-04-11T03:32:53.733Z,279.00
2023-04-11T03:33:53.702Z,278.00
2023-04-11T03:34:53.683Z,280.00
2023-04-11T03:35:53.736Z,279.00
2023-04-11T03:36:53.695Z,279.00
2023-04-11T03:37:53.664Z,279.00
2023-04-11T03:38:53.781Z,278.00
2023-04-11T03:39:53.659Z,275.00
2023-04-11T03:40:53.668Z,276.00
2023-04-11T03:41:53.666Z,274.00
2023-04-11T03:42:53.666Z,273.00
2023-04-11T03:43:53.683Z,275.00
2023-04-11T03:44:53.667Z,276.00
2023-04-11T03:45:53.750Z,277.00
2023-04-11T03:46:53.788Z,277.00
2023-04-11T03:47:53.691Z,276.00
2023-04-11T03:48:53.707Z,279.00
2023-04-11T03:49:53.661Z,280.00
2023-04-11T03:50:53.669Z,279.00
2023-04-11T03:51:53.699Z,279.00
2023-04-11T03:52:53.660Z,279.00
2023-04-11T03:53:53.682Z,278.00
2023-04-11T03:54:53.685Z,279.00
2023-04-11T03:55:53.664Z,277.00
2023-04-11T03:56:53.681Z,275.00
2023-04-11T03:57:53.660Z,275.00
2023-04-11T03:58:53.815Z,281.00
2023-04-11T03:59:53.656Z,281.00
2023-04-11T04:00:53.661Z,279.00
2023-04-11T04:01:53.692Z,277.00
2023-04-11T04:02:53.799Z,277.00
2023-04-11T04:03:54.097Z,277.00
2023-04-11T04:04:53.717Z,274.00
2023-04-11T04:05:53.651Z,278.00
2023-04-11T04:06:53.635Z,278.00
2023-04-11T04:07:55.807Z,280.00
2023-04-11T04:08:53.628Z,281.00
2023-04-11T04:09:53.595Z,281.00
2023-04-11T04:10:53.588Z,282.00
2023-04-11T04:11:53.582Z,282.00
2023-04-11T04:12:53.581Z,281.00
2023-04-11T04:13:53.800Z,280.00
2023-04-11T04:14:53.586Z,279.00
2023-04-11T04:15:53.568Z,278.00
2023-04-11T04:16:53.652Z,277.00
2023-04-11T04:17:53.592Z,276.00
2023-04-11T04:18:53.556Z,277.00
2023-04-11T04:19:53.552Z,277.00
2023-04-11T04:20:53.555Z,278.00
2023-04-11T04:21:53.544Z,281.00
2023-04-11T04:22:53.551Z,281.00
2023-04-11T04:23:53.780Z,281.00
2023-04-11T04:24:53.532Z,282.00
2023-04-11T04:25:53.533Z,283.00
2023-04-11T04:26:53.530Z,280.00
2023-04-11T04:27:53.538Z,280.00
2023-04-11T04:28:53.530Z,281.00
2023-04-11T04:30:03.603Z,280.00
2023-04-11T04:30:54.623Z,280.00
2023-04-11T04:31:53.570Z,280.00
2023-04-11T04:32:53.539Z,280.00
2023-04-11T04:33:53.686Z,282.00
2023-04-11T04:34:53.517Z,282.00
2023-04-11T04:35:53.570Z,281.00
2023-04-11T04:36:53.526Z,279.00
2023-04-11T04:37:53.512Z,277.00
2023-04-11T04:38:53.521Z,278.00
2023-04-11T04:39:53.522Z,280.00
2023-04-11T04:40:53.521Z,280.00
2023-04-11T04:41:53.503Z,280.00
2023-04-11T04:42:53.504Z,279.00
2023-04-11T04:43:53.605Z,277.00
2023-04-11T04:44:53.491Z,275.00
2023-04-11T04:45:53.514Z,277.00
2023-04-11T04:46:53.518Z,274.00
2023-04-11T04:47:53.519Z,274.00
2023-04-11T04:48:53.497Z,275.00
2023-04-11T04:49:53.485Z,276.00
2023-04-11T04:50:53.519Z,280.00
2023-04-11T04:51:53.495Z,280.00
2023-04-11T04:52:53.499Z,278.00
2023-04-11T04:53:53.580Z,278.00
2023-04-11T04:54:53.546Z,281.00
2023-04-11T04:55:53.519Z,282.00
2023-04-11T04:56:53.521Z,282.00
2023-04-11T04:57:53.531Z,281.00
2023-04-11T04:58:53.541Z,281.00
2023-04-11T04:59:53.551Z,280.00
2023-04-11T05:00:53.605Z,278.00
2023-04-11T05:01:53.750Z,277.00
2023-04-11T05:02:53.677Z,281.00
2023-04-11T05:03:53.651Z,283.00
2023-04-11T05:04:53.557Z,286.00
2023-04-11T05:05:53.557Z,287.00
2023-04-11T05:06:53.566Z,284.00
2023-04-11T05:07:53.562Z,287.00
2023-04-11T05:08:53.574Z,288.00
2023-04-11T05:09:53.595Z,289.00
2023-04-11T05:10:53.578Z,293.00
2023-04-11T05:11:53.609Z,291.00
2023-04-11T05:12:53.590Z,291.00
2023-04-11T05:13:53.910Z,291.00
2023-04-11T05:14:53.602Z,290.00
2023-04-11T05:15:53.595Z,291.00
2023-04-11T05:16:53.649Z,295.00
2023-04-11T05:17:53.639Z,294.00
2023-04-11T05:18:53.618Z,295.00
2023-04-11T05:19:53.608Z,292.00
2023-04-11T05:20:53.610Z,293.00
2023-04-11T05:21:53.606Z,294.00
2023-04-11T05:22:53.640Z,293.00
2023-04-11T05:23:53.902Z,290.00
2023-04-11T05:24:53.614Z,287.00
2023-04-11T05:25:53.620Z,286.00
2023-04-11T05:26:53.616Z,284.00
2023-04-11T05:27:53.617Z,284.00
2023-04-11T05:28:53.650Z,285.00
2023-04-11T05:29:53.622Z,285.00
2023-04-11T05:30:53.660Z,283.00
2023-04-11T05:31:53.640Z,288.00
2023-04-11T05:32:53.662Z,297.00
2023-04-11T05:33:53.796Z,346.00
2023-04-11T05:34:55.266Z,368.00
2023-04-11T05:35:53.686Z,388.00
2023-04-11T05:36:53.651Z,466.00
2023-04-11T05:37:53.646Z,527.00
2023-04-11T05:38:53.706Z,543.00
2023-04-11T05:39:53.649Z,589.00
2023-04-11T05:40:53.652Z,594.00
2023-04-11T05:41:53.659Z,600.00
2023-04-11T05:42:53.682Z,608.00
2023-04-11T05:43:53.908Z,636.00
2023-04-11T05:44:53.692Z,815.00
2023-04-11T05:45:53.794Z,810.00
2023-04-11T05:46:53.701Z,768.00
2023-04-11T05:47:53.872Z,765.00
2023-04-11T05:48:53.793Z,759.00
2023-04-11T05:49:53.699Z,748.00
2023-04-11T05:50:53.702Z,733.00
2023-04-11T05:51:53.704Z,730.00
2023-04-11T05:52:53.699Z,726.00
2023-04-11T05:53:54.028Z,720.00
2023-04-11T05:54:53.972Z,719.00
2023-04-11T05:55:53.744Z,719.00
2023-04-11T05:56:53.742Z,719.00
2023-04-11T05:57:53.724Z,717.00
2023-04-11T05:58:53.713Z,712.00
2023-04-11T05:59:53.719Z,699.00
2023-04-11T06:00:53.719Z,687.00
2023-04-11T06:01:53.787Z,682.00
2023-04-11T06:02:53.761Z,678.00
2023-04-11T06:03:54.137Z,672.00
2023-04-11T06:04:53.764Z,661.00
2023-04-11T06:05:53.756Z,648.00
2023-04-11T06:06:53.702Z,642.00
2023-04-11T06:07:53.692Z,634.00
2023-04-11T06:08:53.693Z,629.00
2023-04-11T06:09:53.766Z,626.00
2023-04-11T06:10:53.697Z,623.00
2023-04-11T06:11:53.679Z,624.00
2023-04-11T06:12:53.697Z,620.00
2023-04-11T06:13:53.747Z,615.00
2023-04-11T06:14:53.702Z,611.00
2023-04-11T06:15:53.743Z,604.00
2023-04-11T06:16:53.702Z,604.00
2023-04-11T06:17:53.738Z,600.00
2023-04-11T06:18:53.694Z,598.00
2023-04-11T06:19:53.689Z,598.00
2023-04-11T06:20:53.692Z,596.00
2023-04-11T06:21:53.680Z,594.00
2023-04-11T06:22:53.703Z,593.00
2023-04-11T06:23:53.917Z,589.00
2023-04-11T06:24:53.688Z,586.00
2023-04-11T06:25:53.717Z,585.00
2023-04-11T06:26:53.689Z,576.00
2023-04-11T06:27:53.694Z,572.00
2023-04-11T06:28:53.733Z,570.00
2023-04-11T06:29:53.735Z,569.00
2023-04-11T06:30:53.733Z,567.00
2023-04-11T06:31:53.702Z,566.00
2023-04-11T06:32:53.761Z,563.00
2023-04-11T06:33:53.741Z,559.00
2023-04-11T06:34:53.754Z,557.00
2023-04-11T06:35:53.841Z,555.00
2023-04-11T06:36:53.845Z,554.00
2023-04-11T06:37:53.708Z,550.00
2023-04-11T06:38:53.715Z,547.00
2023-04-11T06:39:53.736Z,548.00
2023-04-11T06:40:53.704Z,547.00
2023-04-11T06:41:53.787Z,545.00
2023-04-11T06:42:53.713Z,652.00
2023-04-11T06:43:53.757Z,768.00
2023-04-11T06:44:53.837Z,732.00
2023-04-11T06:45:53.690Z,736.00
2023-04-11T06:46:53.725Z,740.00
2023-04-11T06:47:53.714Z,784.00
2023-04-11T06:48:53.663Z,816.00
2023-04-11T06:49:53.663Z,884.00
2023-04-11T06:50:53.633Z,934.00
2023-04-11T06:51:53.636Z,987.00
2023-04-11T06:52:53.703Z,993.00
2023-04-11T06:53:53.787Z,1021.00
2023-04-11T06:54:53.638Z,1046.00
2023-04-11T06:55:53.604Z,1063.00
2023-04-11T06:56:53.650Z,1100.00
2023-04-11T06:57:53.571Z,1109.00
2023-04-11T06:58:53.564Z,1113.00
2023-04-11T06:59:53.568Z,1127.00
2023-04-11T07:00:53.559Z,1140.00
2023-04-11T07:01:53.596Z,1154.00
2023-04-11T07:02:53.639Z,1177.00
2023-04-11T07:03:53.793Z,1194.00
2023-04-11T07:04:53.571Z,1224.00
2023-04-11T07:05:53.509Z,1238.00
2023-04-11T07:06:53.598Z,1261.00
2023-04-11T07:07:53.561Z,1279.00
2023-04-11T07:08:53.498Z,1311.00
2023-04-11T07:09:53.496Z,1321.00
2023-04-11T07:10:53.475Z,1334.00
2023-04-11T07:11:53.467Z,1396.00
2023-04-11T07:12:53.453Z,1406.00
2023-04-11T07:13:53.663Z,1407.00
2023-04-11T07:14:53.529Z,1404.00
2023-04-11T07:15:53.467Z,1406.00
2023-04-11T07:16:53.415Z,1419.00
2023-04-11T07:17:53.451Z,1432.00
2023-04-11T07:18:53.446Z,1453.00
2023-04-11T07:19:53.398Z,1491.00
2023-04-11T07:20:53.378Z,1522.00
2023-04-11T07:21:53.389Z,1537.00
2023-04-11T07:22:53.446Z,1548.00
2023-04-11T07:23:53.590Z,1559.00
2023-04-11T07:24:53.327Z,1575.00
2023-04-11T07:25:53.334Z,1592.00
2023-04-11T07:26:53.344Z,1610.00
2023-04-11T07:27:53.295Z,1629.00
2023-04-11T07:28:53.327Z,1646.00
2023-04-11T07:29:53.291Z,1658.00
2023-04-11T07:30:53.310Z,1666.00
2023-04-11T07:31:53.362Z,1674.00
2023-04-11T07:32:53.288Z,1687.00
2023-04-11T07:33:53.326Z,1723.00
2023-04-11T07:34:53.309Z,1731.00
2023-04-11T07:35:53.395Z,1750.00
2023-04-11T07:36:53.365Z,1823.00
2023-04-11T07:37:53.392Z,1815.00
2023-04-11T07:38:53.531Z,1829.00
2023-04-11T07:39:53.466Z,1838.00
2023-04-11T07:40:53.471Z,1729.00
2023-04-11T07:41:53.456Z,1708.00
2023-04-11T07:42:53.470Z,1702.00
2023-04-11T07:43:53.458Z,1720.00
2023-04-11T07:44:53.423Z,1736.00
2023-04-11T07:45:53.472Z,1750.00
2023-04-11T07:46:53.453Z,1762.00
2023-04-11T07:47:53.445Z,1772.00
2023-04-11T07:48:53.401Z,1818.00
2023-04-11T07:49:53.924Z,1820.00
2023-04-11T07:50:53.401Z,1817.00
2023-04-11T07:51:53.388Z,1822.00
2023-04-11T07:52:53.361Z,1827.00
2023-04-11T07:53:53.421Z,1837.00
2023-04-11T07:54:53.386Z,1750.00
2023-04-11T07:55:53.358Z,1442.00
2023-04-11T07:56:53.373Z,1605.00
2023-04-11T07:57:53.350Z,1464.00
2023-04-11T07:58:53.415Z,956.00
2023-04-11T07:59:53.339Z,875.00
2023-04-11T08:00:53.401Z,937.00
2023-04-11T08:01:53.462Z,802.00
2023-04-11T08:02:53.586Z,796.00
2023-04-11T08:03:53.373Z,695.00
2023-04-11T08:04:53.462Z,596.00
2023-04-11T08:05:53.299Z,598.00
2023-04-11T08:06:53.286Z,576.00
2023-04-11T08:07:53.297Z,537.00
2023-04-11T08:08:53.286Z,490.00
2023-04-11T08:09:53.313Z,538.00
2023-04-11T08:10:53.320Z,551.00
2023-04-11T08:11:53.351Z,536.00
2023-04-11T08:12:53.311Z,531.00
2023-04-11T08:13:53.345Z,451.00
2023-04-11T08:14:53.342Z,523.00
2023-04-11T08:15:53.344Z,515.00
2023-04-11T08:16:53.400Z,363.00
2023-04-11T08:17:53.426Z,458.00
2023-04-11T08:18:53.353Z,483.00
2023-04-11T08:19:53.361Z,482.00
2023-04-11T08:20:53.377Z,451.00
2023-04-11T08:21:53.385Z,486.00
2023-04-11T08:22:53.393Z,496.00
2023-04-11T08:23:53.432Z,392.00
2023-04-11T08:24:53.434Z,410.00
2023-04-11T08:25:53.477Z,419.00
2023-04-11T08:26:53.554Z,351.00
2023-04-11T08:27:53.478Z,416.00
2023-04-11T08:28:53.501Z,386.00
2023-04-11T08:29:53.527Z,487.00
2023-04-11T08:30:53.604Z,429.00
2023-04-11T08:31:53.577Z,490.00
2023-04-11T08:32:53.633Z,508.00
2023-04-11T08:33:53.597Z,524.00
2023-04-11T08:34:53.646Z,537.00
2023-04-11T08:35:53.634Z,550.00
2023-04-11T08:36:53.698Z,554.00
2023-04-11T08:37:53.674Z,553.00
2023-04-11T08:38:53.738Z,555.00
2023-04-11T08:39:53.796Z,552.00
2023-04-11T08:40:53.856Z,553.00
2023-04-11T08:41:53.886Z,555.00
2023-04-11T08:42:53.921Z,556.00
2023-04-11T08:43:54.490Z,560.00
2023-04-11T08:44:54.029Z,563.00
2023-04-11T08:45:54.101Z,563.00
2023-04-11T08:46:54.118Z,564.00
2023-04-11T08:47:54.261Z,565.00
2023-04-11T08:48:54.133Z,563.00
2023-04-11T08:49:54.297Z,563.00
2023-04-11T08:50:54.190Z,564.00
2023-04-11T08:51:54.201Z,645.00
2023-04-11T08:52:54.260Z,677.00
2023-04-11T08:53:54.511Z,731.00
2023-04-11T08:54:54.263Z,832.00
2023-04-11T08:55:54.263Z,866.00
2023-04-11T08:56:54.332Z,903.00
2023-04-11T08:57:54.277Z,928.00
2023-04-11T08:58:54.264Z,933.00
2023-04-11T08:59:54.462Z,1014.00
2023-04-11T09:00:54.443Z,1043.00
2023-04-11T09:01:54.322Z,1061.00
2023-04-11T09:02:54.296Z,1093.00
2023-04-11T09:03:55.193Z,1122.00
2023-04-11T09:04:54.278Z,1129.00
2023-04-11T09:05:54.244Z,1134.00
2023-04-11T09:06:54.223Z,1159.00
2023-04-11T09:07:54.221Z,1173.00
2023-04-11T09:08:54.218Z,1190.00
2023-04-11T09:09:54.201Z,1206.00
2023-04-11T09:10:54.198Z,1220.00
2023-04-11T09:11:54.211Z,1231.00
2023-04-11T09:12:54.191Z,1242.00
2023-04-11T09:13:54.520Z,1256.00
2023-04-11T09:14:54.193Z,1267.00
2023-04-11T09:15:54.204Z,1294.00
2023-04-11T09:16:54.167Z,1321.00
2023-04-11T09:17:54.175Z,1342.00
2023-04-11T09:18:54.218Z,1347.00
2023-04-11T09:19:54.139Z,1349.00
2023-04-11T09:20:54.113Z,1368.00
2023-04-11T09:21:54.132Z,1406.00
2023-04-11T09:22:54.104Z,1424.00
2023-04-11T09:23:54.186Z,1426.00
2023-04-11T09:24:54.066Z,1427.00
2023-04-11T09:25:54.074Z,1418.00
2023-04-11T09:26:54.054Z,1412.00
2023-04-11T09:27:54.061Z,1407.00
2023-04-11T09:28:54.299Z,1398.00
2023-04-11T09:29:54.093Z,1392.00
2023-04-11T09:30:54.151Z,1382.00
2023-04-11T09:31:54.133Z,1378.00
2023-04-11T09:32:54.219Z,1374.00
2023-04-11T09:33:54.309Z,1370.00
2023-04-11T09:34:54.197Z,1359.00
2023-04-11T09:35:54.293Z,1359.00
2023-04-11T09:36:54.440Z,1359.00
2023-04-11T09:37:54.363Z,1353.00
2023-04-11T09:38:54.295Z,1348.00
2023-04-11T09:39:54.353Z,1343.00
2023-04-11T09:40:54.350Z,1337.00
2023-04-11T09:41:54.381Z,1327.00
2023-04-11T09:42:54.871Z,1306.00
2023-04-11T09:43:54.627Z,1312.00
2023-04-11T09:44:54.396Z,1336.00
2023-04-11T09:45:54.921Z,1353.00
2023-04-11T09:46:54.507Z,1344.00
2023-04-11T09:47:54.431Z,1323.00
2023-04-11T09:48:54.383Z,1281.00
2023-04-11T09:49:54.353Z,1272.00
2023-04-11T09:50:54.363Z,1260.00
2023-04-11T09:51:54.362Z,1215.00
2023-04-11T09:52:55.934Z,1211.00
2023-04-11T09:53:54.632Z,1202.00
2023-04-11T09:54:54.321Z,1198.00
2023-04-11T09:55:54.312Z,1200.00
2023-04-11T09:56:54.304Z,1199.00
2023-04-11T09:57:54.311Z,1200.00
2023-04-11T09:58:54.530Z,1194.00
2023-04-11T09:59:54.270Z,1189.00
2023-04-11T10:00:54.438Z,1184.00
2023-04-11T10:01:54.527Z,1178.00
2023-04-11T10:02:54.515Z,1176.00
2023-04-11T10:03:54.431Z,1172.00
2023-04-11T10:04:54.249Z,1164.00
2023-04-11T10:05:54.271Z,1153.00
2023-04-11T10:06:54.219Z,1145.00
2023-04-11T10:07:54.204Z,1147.00
2023-04-11T10:08:54.565Z,1144.00
2023-04-11T10:09:54.183Z,1143.00
2023-04-11T10:10:54.184Z,1144.00
2023-04-11T10:11:54.188Z,1143.00
2023-04-11T10:12:54.159Z,1143.00
2023-04-11T10:13:54.434Z,1142.00
2023-04-11T10:14:54.162Z,1138.00
2023-04-11T10:15:54.286Z,1131.00
2023-04-11T10:16:54.247Z,1126.00
2023-04-11T10:17:54.315Z,1126.00
2023-04-11T10:18:54.315Z,1126.00
2023-04-11T10:19:54.360Z,1119.00
2023-04-11T10:20:54.337Z,1117.00
2023-04-11T10:21:54.556Z,1118.00
2023-04-11T10:22:54.373Z,1107.00
2023-04-11T10:23:54.429Z,1100.00
2023-04-11T10:24:55.053Z,1104.00
2023-04-11T10:25:54.311Z,1101.00
2023-04-11T10:26:54.309Z,1077.00
2023-04-11T10:27:54.301Z,1069.00
2023-04-11T10:28:54.255Z,1071.00
2023-04-11T10:29:54.296Z,1069.00
2023-04-11T10:30:54.264Z,1067.00
2023-04-11T10:31:54.294Z,1064.00
2023-04-11T10:32:54.275Z,1063.00
2023-04-11T10:33:54.561Z,1059.00
2023-04-11T10:34:54.312Z,1056.00
2023-04-11T10:35:54.370Z,1048.00
2023-04-11T10:36:54.394Z,1045.00
2023-04-11T10:37:54.439Z,1041.00
2023-04-11T10:38:54.612Z,1040.00
2023-04-11T10:39:54.538Z,1036.00
2023-04-11T10:40:54.574Z,1034.00
2023-04-11T10:41:54.654Z,1030.00
2023-04-11T10:42:54.585Z,1031.00
2023-04-11T10:43:54.568Z,1031.00
2023-04-11T10:44:54.685Z,1029.00
2023-04-11T10:45:54.556Z,1023.00
2023-04-11T10:46:54.713Z,1019.00
2023-04-11T10:47:54.582Z,1016.00
2023-04-11T10:48:54.551Z,1013.00
2023-04-11T10:49:54.565Z,1012.00
2023-04-11T10:50:54.537Z,1010.00
2023-04-11T10:51:54.562Z,1011.00
2023-04-11T10:52:54.528Z,1010.00
2023-04-11T10:53:54.601Z,1005.00
2023-04-11T10:54:54.525Z,995.00
2023-04-11T10:55:54.499Z,987.00
2023-04-11T10:56:54.524Z,983.00
2023-04-11T10:57:54.499Z,981.00
2023-04-11T10:58:54.467Z,975.00
2023-04-11T10:59:54.505Z,964.00
2023-04-11T11:00:54.523Z,955.00
2023-04-11T11:01:54.551Z,947.00
2023-04-11T11:02:54.563Z,947.00
2023-04-11T11:03:54.646Z,945.00
2023-04-11T11:04:54.576Z,940.00
2023-04-11T11:05:54.416Z,936.00
2023-04-11T11:06:57.196Z,935.00
2023-04-11T11:07:54.417Z,931.00
2023-04-11T11:08:54.411Z,927.00
2023-04-11T11:09:54.386Z,924.00
2023-04-11T11:10:55.370Z,923.00
2023-04-11T11:11:54.386Z,920.00
2023-04-11T11:12:54.379Z,917.00
2023-04-11T11:13:54.543Z,911.00
2023-04-11T11:14:54.371Z,904.00
2023-04-11T11:15:54.364Z,902.00
2023-04-11T11:16:54.441Z,900.00
2023-04-11T11:17:54.412Z,899.00
2023-04-11T11:18:54.366Z,895.00
2023-04-11T11:19:54.422Z,895.00
2023-04-11T11:20:54.365Z,893.00
2023-04-11T11:21:54.336Z,892.00
2023-04-11T11:22:54.363Z,891.00
2023-04-11T11:23:54.632Z,888.00
2023-04-11T11:24:54.337Z,885.00
2023-04-11T11:25:54.315Z,884.00
2023-04-11T11:26:54.322Z,883.00
2023-04-11T11:27:54.492Z,884.00
2023-04-11T11:28:54.500Z,881.00
2023-04-11T11:29:54.315Z,878.00
2023-04-11T11:30:55.649Z,872.00
2023-04-11T11:31:54.298Z,869.00
2023-04-11T11:32:54.305Z,870.00
2023-04-11T11:33:58.245Z,867.00
2023-04-11T11:34:55.339Z,866.00
2023-04-11T11:35:54.312Z,866.00
2023-04-11T11:36:54.287Z,864.00
2023-04-11T11:37:54.259Z,863.00
2023-04-11T11:38:54.480Z,856.00
2023-04-11T11:39:54.276Z,855.00
2023-04-11T11:40:54.245Z,855.00
2023-04-11T11:41:54.252Z,852.00
2023-04-11T11:42:54.238Z,853.00
2023-04-11T11:43:54.416Z,851.00
2023-04-11T11:44:54.214Z,851.00
2023-04-11T11:45:54.409Z,850.00
2023-04-11T11:46:54.281Z,846.00
2023-04-11T11:47:54.375Z,842.00
2023-04-11T11:48:54.418Z,840.00
2023-04-11T11:49:54.498Z,837.00
2023-04-11T11:50:54.451Z,835.00
2023-04-11T11:51:54.503Z,835.00
2023-04-11T11:52:54.574Z,836.00
2023-04-11T11:53:54.596Z,835.00
2023-04-11T11:54:54.595Z,837.00
2023-04-11T11:55:54.600Z,834.00
2023-04-11T11:56:54.632Z,833.00
2023-04-11T11:57:54.581Z,832.00
2023-04-11T11:58:54.620Z,828.00
2023-04-11T11:59:54.726Z,827.00
2023-04-11T12:00:54.576Z,821.00
2023-04-11T12:01:54.570Z,820.00
2023-04-11T12:02:54.864Z,822.00
2023-04-11T12:03:54.607Z,820.00
2023-04-11T12:04:54.689Z,818.00
2023-04-11T12:05:54.507Z,818.00
2023-04-11T12:06:54.578Z,812.00
2023-04-11T12:07:54.685Z,807.00
2023-04-11T12:08:54.632Z,806.00
2023-04-11T12:09:54.686Z,803.00
2023-04-11T12:10:54.737Z,802.00
2023-04-11T12:11:54.785Z,802.00
2023-04-11T12:12:54.824Z,804.00
2023-04-11T12:13:55.105Z,803.00
2023-04-11T12:14:54.912Z,804.00
2023-04-11T12:15:55.098Z,804.00
2023-04-11T12:16:55.010Z,803.00
2023-04-11T12:17:55.112Z,803.00
2023-04-11T12:18:55.091Z,800.00
2023-04-11T12:19:55.104Z,794.00
2023-04-11T12:20:55.091Z,792.00
2023-04-11T12:21:55.046Z,793.00
2023-04-11T12:22:55.388Z,792.00